createdAt,value
2023-11-15T00:00:01.021Z,90.1
2023-11-15T00:01:31.576Z,90.2
2023-11-15T00:03:02.326Z,90.1
2023-11-15T00:04:33.004Z,90.2
2023-11-15T00:06:04.043Z,90.2
2023-11-15T00:07:34.672Z,90.2
2023-11-15T00:09:05.089Z,90
2023-11-15T00:10:35.528Z,90.2
2023-11-15T00:12:05.980Z,90.1
2023-11-15T00:13:36.555Z,90.2
2023-11-15T00:15:07.120Z,90.1
2023-11-15T00:16:37.617Z,90.1
2023-11-15T00:18:08.227Z,90.2
2023-11-15T00:19:38.932Z,90.1
2023-11-15T00:21:09.385Z,90
2023-11-15T00:22:39.786Z,90.1
2023-11-15T00:24:10.204Z,90.1
2023-11-15T00:25:40.647Z,90.1
2023-11-15T00:27:11.070Z,90.1
2023-11-15T00:28:41.572Z,90.1
2023-11-15T00:30:12.160Z,90.2
2023-11-15T00:31:42.632Z,90.2
2023-11-15T00:33:13.137Z,90.2
2023-11-15T00:34:43.712Z,90.1
2023-11-15T00:36:14.410Z,90.2
2023-11-15T00:37:45.042Z,90.1
2023-11-15T00:39:15.445Z,90.2
2023-11-15T00:40:45.879Z,90.2
2023-11-15T00:42:16.502Z,90.2
2023-11-15T00:43:46.920Z,90.2
2023-11-15T00:45:17.339Z,90.1
2023-11-15T00:46:47.740Z,90.2
2023-11-15T00:48:18.343Z,90.2
2023-11-15T00:49:49.045Z,90.2
2023-11-15T00:51:19.510Z,90.2
2023-11-15T00:52:49.948Z,90.1
2023-11-15T00:54:20.354Z,90.1
2023-11-15T00:55:50.778Z,90.2
2023-11-15T00:57:21.350Z,90.2
2023-11-15T00:58:51.816Z,90.2
2023-11-15T01:00:22.243Z,90.1
2023-11-15T01:01:52.694Z,90.1
2023-11-15T01:03:23.297Z,90.1
2023-11-15T01:04:53.955Z,90.1
2023-11-15T01:06:24.454Z,90.2
2023-11-15T01:07:54.970Z,90.2
2023-11-15T01:09:25.375Z,90
2023-11-15T01:10:55.897Z,90.1
2023-11-15T01:12:26.372Z,90.1
2023-11-15T01:13:56.838Z,90.1
2023-11-15T01:15:27.260Z,90
2023-11-15T01:16:57.704Z,90.1
2023-11-15T01:18:28.104Z,90
2023-11-15T01:19:58.525Z,89.9
2023-11-15T01:21:28.962Z,90.1
2023-11-15T01:22:59.364Z,90
2023-11-15T01:24:29.784Z,90
2023-11-15T01:26:00.228Z,90
2023-11-15T01:27:30.649Z,90.1
2023-11-15T01:29:01.147Z,90
2023-11-15T01:30:31.593Z,90
2023-11-15T01:32:02.084Z,89.9
2023-11-15T01:33:32.624Z,89.9
2023-11-15T01:35:03.160Z,89.9
2023-11-15T01:36:33.656Z,90
2023-11-15T01:38:04.082Z,90.1
2023-11-15T01:39:34.515Z,90
2023-11-15T01:41:04.965Z,89.9
2023-11-15T01:41:21.920Z,90
2023-11-15T01:42:52.382Z,90
2023-11-15T01:44:23.019Z,90
2023-11-15T01:45:53.865Z,90
2023-11-15T01:47:24.331Z,90
2023-11-15T01:48:55.081Z,90
2023-11-15T01:50:25.713Z,90
2023-11-15T01:51:56.184Z,90
2023-11-15T01:53:26.719Z,90
2023-11-15T01:54:57.144Z,90
2023-11-15T01:56:27.554Z,90
2023-11-15T01:57:58.215Z,90
2023-11-15T01:59:28.624Z,89.9
2023-11-15T02:00:59.012Z,89.9
2023-11-15T02:02:29.664Z,90
2023-11-15T02:04:00.465Z,89.9
2023-11-15T02:05:31.187Z,90
2023-11-15T02:07:01.626Z,90
2023-11-15T02:08:32.079Z,89.9
2023-11-15T02:10:02.575Z,90
2023-11-15T02:11:32.994Z,90
2023-11-15T02:13:03.650Z,90
2023-11-15T02:14:34.095Z,90
2023-11-15T02:16:04.622Z,89.9
2023-11-15T02:17:35.389Z,89.9
2023-11-15T02:19:06.009Z,90
2023-11-15T02:20:36.497Z,89.9
2023-11-15T02:22:06.967Z,90
2023-11-15T02:23:37.388Z,90
2023-11-15T02:25:07.801Z,89.9
2023-11-15T02:26:38.259Z,89.9
2023-11-15T02:28:08.907Z,90
2023-11-15T02:29:39.460Z,89.9
2023-11-15T02:31:10.026Z,90
2023-11-15T02:32:40.678Z,89.8
2023-11-15T02:34:11.238Z,90
2023-11-15T02:35:41.725Z,89.9
2023-11-15T02:37:12.297Z,90
2023-11-15T02:38:42.781Z,89.9
2023-11-15T02:40:13.471Z,89.9
2023-11-15T02:41:44.031Z,89.9
2023-11-15T02:43:14.511Z,89.9
2023-11-15T02:44:45.085Z,89.8
2023-11-15T02:46:15.555Z,89.8
2023-11-15T02:47:46.006Z,89.8
2023-11-15T02:49:16.619Z,89.9
2023-11-15T02:50:47.148Z,89.8
2023-11-15T02:52:17.712Z,89.9
2023-11-15T02:53:48.247Z,89.9
2023-11-15T02:55:18.668Z,89.9
2023-11-15T02:56:49.147Z,89.8
2023-11-15T02:58:19.821Z,89.8
2023-11-15T02:59:50.301Z,89.8
2023-11-15T03:03:23.663Z,89.8
2023-11-15T03:04:54.361Z,89.9
2023-11-15T03:06:24.874Z,90
2023-11-15T03:07:55.289Z,89.9
2023-11-15T03:09:25.732Z,89.9
2023-11-15T03:10:56.231Z,90
2023-11-15T03:12:26.660Z,89.8
2023-11-15T03:13:57.110Z,90
2023-11-15T03:15:27.702Z,90
2023-11-15T03:16:58.171Z,89.9
2023-11-15T03:18:28.864Z,89.8
2023-11-15T03:19:59.370Z,89.8
2023-11-15T03:21:29.894Z,89.9
2023-11-15T03:23:00.339Z,89.9
2023-11-15T03:24:30.846Z,89.8
2023-11-15T03:26:01.256Z,89.9
2023-11-15T03:27:31.709Z,89.8
2023-11-15T03:29:02.374Z,89.8
2023-11-15T03:30:32.824Z,89.8
2023-11-15T03:32:03.288Z,89.8
2023-11-15T03:33:33.987Z,89.8
2023-11-15T03:35:04.696Z,89.9
2023-11-15T03:36:35.158Z,89.8
2023-11-15T03:38:05.673Z,89.9
2023-11-15T03:39:36.159Z,89.9
2023-11-15T03:41:06.582Z,89.9
2023-11-15T03:42:37.018Z,89.8
2023-11-15T03:44:07.700Z,89.9
2023-11-15T03:45:38.146Z,89.8
2023-11-15T03:47:08.599Z,89.8
2023-11-15T03:48:39.149Z,89.8
2023-11-15T03:50:09.727Z,89.8
2023-11-15T03:51:40.159Z,89.8
2023-11-15T03:53:10.664Z,89.7
2023-11-15T03:54:41.080Z,89.6
2023-11-15T03:56:11.517Z,89.7
2023-11-15T03:57:42.094Z,89.8
2023-11-15T03:59:12.674Z,89.8
2023-11-15T04:00:43.291Z,89.8
2023-11-15T04:02:13.866Z,89.8
2023-11-15T04:03:44.689Z,89.8
2023-11-15T04:05:16.056Z,89.8
2023-11-15T04:06:46.590Z,89.7
2023-11-15T04:08:17.018Z,89.8
2023-11-15T04:09:47.451Z,89.8
2023-11-15T04:11:17.969Z,89.8
2023-11-15T04:12:49.340Z,89.7
2023-11-15T04:14:19.897Z,89.8
2023-11-15T04:15:50.371Z,89.8
2023-11-15T04:17:20.877Z,89.7
2023-11-15T04:18:51.307Z,89.8
2023-11-15T04:20:21.827Z,89.8
2023-11-15T04:22:12.298Z,89.7
2023-11-15T04:23:44.720Z,89.7
2023-11-15T04:25:15.228Z,89.6
2023-11-15T04:26:45.775Z,89.7
2023-11-15T04:28:16.242Z,89.8
2023-11-15T04:29:46.750Z,89.8
2023-11-15T04:31:17.399Z,89.7
2023-11-15T04:32:48.203Z,89.7
2023-11-15T04:34:18.768Z,89.8
2023-11-15T04:35:49.321Z,89.8
2023-11-15T04:37:19.783Z,89.8
2023-11-15T04:38:50.381Z,89.9
2023-11-15T04:40:20.929Z,89.8
2023-11-15T04:41:51.428Z,89.7
2023-11-15T04:43:21.889Z,89.8
2023-11-15T04:44:52.485Z,89.9
2023-11-15T04:46:23.084Z,89.7
2023-11-15T04:47:53.748Z,89.7
2023-11-15T04:49:24.381Z,89.8
2023-11-15T04:50:54.892Z,89.8
2023-11-15T04:52:25.455Z,89.7
2023-11-15T04:52:42.420Z,89.8
2023-11-15T04:54:12.897Z,89.8
2023-11-15T04:55:43.369Z,89.7
2023-11-15T04:57:13.825Z,89.9
2023-11-15T04:58:44.316Z,89.8
2023-11-15T05:00:14.793Z,89.8
2023-11-15T05:01:45.305Z,89.7
2023-11-15T05:03:16.145Z,89.8
2023-11-15T05:04:48.207Z,89.8
2023-11-15T05:06:22.576Z,89.8
2023-11-15T05:07:53.109Z,89.8
2023-11-15T05:09:23.600Z,89.8
2023-11-15T05:10:54.030Z,89.8
2023-11-15T05:12:26.549Z,89.8
2023-11-15T05:13:57.070Z,89.8
2023-11-15T05:15:27.702Z,89.7
2023-11-15T05:16:58.175Z,89.8
2023-11-15T05:18:28.821Z,89.8
2023-11-15T05:19:59.468Z,89.8
2023-11-15T05:21:29.946Z,89.8
2023-11-15T05:23:00.474Z,89.8
2023-11-15T05:24:30.982Z,89.9
2023-11-15T05:26:01.415Z,89.8
2023-11-15T05:27:31.929Z,89.9
2023-11-15T05:29:02.339Z,89.8
2023-11-15T05:30:32.840Z,89.8
2023-11-15T05:32:03.289Z,89.8
2023-11-15T05:33:33.874Z,89.8
2023-11-15T05:35:04.476Z,89.8
2023-11-15T05:36:34.955Z,89.7
2023-11-15T05:38:05.415Z,89.8
2023-11-15T05:39:35.927Z,89.7
2023-11-15T05:41:06.486Z,89.8
2023-11-15T05:42:36.939Z,89.7
2023-11-15T05:44:07.377Z,89.7
2023-11-15T05:45:37.927Z,89.7
2023-11-15T05:47:08.406Z,89.8
2023-11-15T05:48:38.928Z,89.8
2023-11-15T05:50:09.473Z,89.7
2023-11-15T05:51:39.973Z,89.9
2023-11-15T05:53:10.610Z,89.7
2023-11-15T05:54:41.039Z,89.7
2023-11-15T05:56:12.430Z,89.8
2023-11-15T05:57:46.573Z,89.8
2023-11-15T05:59:17.016Z,89.7
2023-11-15T06:00:47.547Z,89.8
2023-11-15T06:02:18.139Z,89.8
2023-11-15T06:03:48.744Z,89.8
2023-11-15T06:05:19.391Z,89.8
2023-11-15T06:06:49.842Z,89.8
2023-11-15T06:08:20.263Z,89.8
2023-11-15T06:09:50.751Z,89.8
2023-11-15T06:11:21.175Z,89.8
2023-11-15T06:12:51.625Z,89.8
2023-11-15T06:14:22.119Z,89.8
2023-11-15T06:15:52.565Z,89.9
2023-11-15T06:17:23.092Z,89.9
2023-11-15T06:18:53.598Z,89.8
2023-11-15T06:20:24.100Z,89.9
2023-11-15T06:21:54.605Z,89.7
2023-11-15T06:23:25.167Z,89.8
2023-11-15T06:24:55.680Z,89.8
2023-11-15T06:26:26.095Z,89.9
2023-11-15T06:27:56.740Z,89.7
2023-11-15T06:29:27.345Z,89.7
2023-11-15T06:30:58.144Z,89.8
2023-11-15T06:32:28.778Z,89.8
2023-11-15T06:33:59.563Z,89.8
2023-11-15T06:35:30.325Z,89.8
2023-11-15T06:37:00.805Z,89.8
2023-11-15T06:38:31.355Z,89.7
2023-11-15T06:40:01.843Z,89.8
2023-11-15T06:41:32.262Z,89.9
2023-11-15T06:41:49.319Z,89.8
2023-11-15T06:43:19.762Z,89.7
2023-11-15T06:44:50.264Z,89.8
2023-11-15T06:46:20.981Z,89.7
2023-11-15T06:47:51.558Z,89.8
2023-11-15T06:49:22.149Z,89.8
2023-11-15T06:50:52.640Z,89.8
2023-11-15T06:52:23.110Z,89.8
2023-11-15T06:53:53.599Z,89.9
2023-11-15T06:55:24.347Z,89.9
2023-11-15T06:56:54.834Z,89.9
2023-11-15T06:58:25.404Z,89.9
2023-11-15T06:59:55.893Z,89.8
2023-11-15T07:01:26.842Z,89.9
2023-11-15T07:02:57.634Z,89.9
2023-11-15T07:04:28.395Z,89.9
2023-11-15T07:05:59.083Z,90
2023-11-15T07:07:29.662Z,90
2023-11-15T07:09:00.165Z,89.9
2023-11-15T07:10:30.721Z,89.8
2023-11-15T07:12:01.133Z,89.9
2023-11-15T07:13:31.637Z,89.9
2023-11-15T07:15:02.589Z,89.9
2023-11-15T07:16:33.289Z,89.9
2023-11-15T07:18:03.984Z,89.9
2023-11-15T07:19:34.569Z,89.9
2023-11-15T07:21:05.178Z,89.9
2023-11-15T07:22:35.588Z,89.9
2023-11-15T07:24:06.166Z,89.9
2023-11-15T07:25:36.651Z,89.9
2023-11-15T07:27:07.120Z,89.9
2023-11-15T07:28:37.702Z,89.9
2023-11-15T07:30:08.173Z,89.9
2023-11-15T07:31:39.132Z,89.9
2023-11-15T07:33:09.781Z,90
2023-11-15T07:34:40.302Z,89.8
2023-11-15T07:36:10.884Z,90
2023-11-15T07:37:41.349Z,90
2023-11-15T07:39:11.801Z,90
2023-11-15T07:40:42.270Z,90
2023-11-15T07:42:12.767Z,89.9
2023-11-15T07:43:43.247Z,90
2023-11-15T07:45:13.894Z,90
2023-11-15T07:46:44.496Z,90
2023-11-15T07:48:15.072Z,89.9
2023-11-15T07:49:45.615Z,90
2023-11-15T07:51:16.035Z,90
2023-11-15T07:52:46.488Z,89.9
2023-11-15T07:54:17.097Z,90.1
2023-11-15T07:55:47.500Z,90.1
2023-11-15T07:57:18.054Z,89.9
2023-11-15T07:58:48.457Z,90.1
2023-11-15T08:00:18.951Z,89.9
2023-11-15T08:01:49.662Z,89.9
2023-11-15T08:03:20.362Z,89.9
2023-11-15T08:04:50.979Z,90
2023-11-15T08:06:21.466Z,90.1
2023-11-15T08:07:51.898Z,90.1
2023-11-15T08:09:22.304Z,90
2023-11-15T08:10:52.726Z,90
2023-11-15T08:12:23.216Z,89.9
2023-11-15T08:13:58.181Z,90
2023-11-15T08:15:28.601Z,90
2023-11-15T08:16:59.186Z,90.1
2023-11-15T08:18:29.847Z,90.2
2023-11-15T08:20:00.380Z,90.1
2023-11-15T08:21:30.818Z,90.1
2023-11-15T08:23:01.328Z,90.1
2023-11-15T08:24:31.734Z,90
2023-11-15T08:26:02.158Z,90.1
2023-11-15T08:27:32.586Z,90
2023-11-15T08:29:02.994Z,90.2
2023-11-15T08:30:33.409Z,90.1
2023-11-15T08:30:50.361Z,90.1
2023-11-15T08:32:20.914Z,90.1
2023-11-15T08:33:51.605Z,90
2023-11-15T08:35:22.306Z,90.1
2023-11-15T08:36:53.004Z,90.1
2023-11-15T08:38:23.653Z,90.2
2023-11-15T08:39:54.078Z,90.2
2023-11-15T08:41:24.572Z,90.1
2023-11-15T08:42:55.127Z,90.2
2023-11-15T08:44:25.949Z,90.2
2023-11-15T08:45:56.536Z,90.1
2023-11-15T08:47:27.125Z,90.1
2023-11-15T08:48:57.829Z,90.1
2023-11-15T08:50:28.841Z,90.1
2023-11-15T08:51:59.390Z,90.1
2023-11-15T08:53:29.805Z,90.1
2023-11-15T08:55:00.239Z,90.2
2023-11-15T08:56:30.746Z,90.1
2023-11-15T08:58:01.165Z,90.1
2023-11-15T08:59:31.712Z,90.1
2023-11-15T09:01:02.298Z,90.1
2023-11-15T09:03:27.372Z,90.1
2023-11-15T09:04:58.155Z,90.2
2023-11-15T09:06:28.664Z,90.1
2023-11-15T09:07:59.193Z,90.2
2023-11-15T09:09:29.730Z,90.2
2023-11-15T09:11:00.230Z,90.3
2023-11-15T09:12:30.658Z,90.2
2023-11-15T09:14:01.324Z,90.2
2023-11-15T09:15:31.799Z,90.2
2023-11-15T09:17:02.340Z,90.1
2023-11-15T09:18:33.134Z,90.2
2023-11-15T09:20:03.892Z,90.1
2023-11-15T09:21:34.306Z,90.2
2023-11-15T09:23:04.943Z,90.2
2023-11-15T09:24:42.162Z,90.1
2023-11-15T09:26:12.638Z,90.2
2023-11-15T09:27:43.170Z,90.2
2023-11-15T09:29:13.684Z,90.2
2023-11-15T09:30:44.198Z,90.2
2023-11-15T09:32:14.630Z,90.1
2023-11-15T09:33:45.277Z,90.2
2023-11-15T09:35:15.984Z,90.2
2023-11-15T09:36:46.404Z,90.2
2023-11-15T09:38:16.824Z,90.1
2023-11-15T09:39:47.335Z,90.2
2023-11-15T09:41:17.757Z,90.1
2023-11-15T09:42:48.553Z,90.1
2023-11-15T09:44:19.002Z,90.1
2023-11-15T09:45:49.482Z,90.1
2023-11-15T09:47:20.067Z,90.1
2023-11-15T09:49:02.722Z,90.1
2023-11-15T09:50:38.032Z,90.2
2023-11-15T09:52:08.529Z,90.1
2023-11-15T09:53:40.632Z,90.1
2023-11-15T09:55:11.115Z,90.1
2023-11-15T09:56:41.640Z,90.1
2023-11-15T09:58:12.149Z,90.2
2023-11-15T09:59:52.624Z,90.2
2023-11-15T10:01:42.127Z,90.2
2023-11-15T10:03:12.735Z,90.1
2023-11-15T10:04:43.345Z,90.2
2023-11-15T10:06:13.928Z,90.2
2023-11-15T10:07:44.567Z,90.1
2023-11-15T10:09:14.989Z,90.2
2023-11-15T10:10:45.458Z,90.1
2023-11-15T10:12:15.937Z,90.1
2023-11-15T10:13:48.913Z,90.1
2023-11-15T10:15:19.348Z,90.1
2023-11-15T10:16:49.751Z,90.1
2023-11-15T10:18:20.262Z,90.2
2023-11-15T10:19:50.970Z,90.1
2023-11-15T10:21:21.526Z,90.1
2023-11-15T10:22:51.948Z,90.2
2023-11-15T10:24:22.454Z,90.1
2023-11-15T10:25:52.900Z,90.1
2023-11-15T10:27:23.311Z,90.2
2023-11-15T10:28:53.753Z,90.2
2023-11-15T10:30:24.170Z,90.3
2023-11-15T10:31:54.809Z,90.1
2023-11-15T10:33:26.574Z,90.2
2023-11-15T10:34:57.218Z,90.2
2023-11-15T10:36:27.704Z,90.2
2023-11-15T10:37:58.092Z,90.2
2023-11-15T10:39:28.569Z,90.2
2023-11-15T10:40:59.042Z,90.1
2023-11-15T10:42:29.468Z,90.1
2023-11-15T10:43:59.889Z,90.2
2023-11-15T10:45:30.652Z,90.1
2023-11-15T10:47:01.131Z,90.1
2023-11-15T10:48:31.627Z,90.1
2023-11-15T10:50:02.256Z,90
2023-11-15T10:51:32.758Z,90.1
2023-11-15T10:51:49.808Z,90.1
2023-11-15T10:53:20.208Z,90.1
2023-11-15T10:54:50.615Z,89.9
2023-11-15T10:56:21.033Z,90.1
2023-11-15T10:57:51.454Z,90.1
2023-11-15T10:59:21.873Z,90.1
2023-11-15T11:00:52.298Z,90.1
2023-11-15T11:02:22.789Z,90.2
2023-11-15T11:03:53.521Z,90.2
2023-11-15T11:05:24.352Z,90.1
2023-11-15T11:06:54.806Z,90.1
2023-11-15T11:08:25.220Z,90.2
2023-11-15T11:09:55.629Z,90.2
2023-11-15T11:11:26.169Z,90.2
2023-11-15T11:12:56.574Z,90.2
2023-11-15T11:14:27.097Z,90.1
2023-11-15T11:15:58.117Z,90.1
2023-11-15T11:17:28.708Z,90.1
2023-11-15T11:18:59.259Z,90.1
2023-11-15T11:20:29.913Z,90.1
2023-11-15T11:22:00.333Z,90
2023-11-15T11:23:35.526Z,90.1
2023-11-15T11:25:07.313Z,90.1
2023-11-15T11:26:38.247Z,90.2
2023-11-15T11:28:08.987Z,90.1
2023-11-15T11:29:39.461Z,90.1
2023-11-15T11:31:09.985Z,90.1
2023-11-15T11:32:40.616Z,90.2
2023-11-15T11:34:11.198Z,90.2
2023-11-15T11:35:41.834Z,90.2
2023-11-15T11:37:12.720Z,90.2
2023-11-15T11:38:43.262Z,90.2
2023-11-15T11:40:14.326Z,90.2
2023-11-15T11:41:44.958Z,90.1
2023-11-15T11:43:15.471Z,90.1
2023-11-15T11:44:46.161Z,90.2
2023-11-15T11:46:16.770Z,90.2
2023-11-15T11:47:47.590Z,90.2
2023-11-15T11:49:18.453Z,90.2
2023-11-15T11:50:48.944Z,90.2
2023-11-15T11:52:19.533Z,90.2
2023-11-15T11:53:50.050Z,90.2
2023-11-15T11:55:20.563Z,90.2
2023-11-15T11:56:51.117Z,90.2
2023-11-15T11:58:21.746Z,90.2
2023-11-15T11:59:52.219Z,90.2
2023-11-15T12:01:22.685Z,90.2
2023-11-15T12:03:00.442Z,90.3
2023-11-15T12:04:38.698Z,90.3
2023-11-15T12:06:09.830Z,90.3
2023-11-15T12:07:40.811Z,90.1
2023-11-15T12:09:11.385Z,90.2
2023-11-15T12:10:41.828Z,90.2
2023-11-15T12:12:12.296Z,90.2
2023-11-15T12:13:42.781Z,90.2
2023-11-15T12:15:13.243Z,90.3
2023-11-15T12:16:44.135Z,90.2
2023-11-15T12:18:15.961Z,90.4
2023-11-15T12:19:46.605Z,90.3
2023-11-15T12:21:17.109Z,90.4
2023-11-15T12:22:50.257Z,90.3
2023-11-15T12:24:20.725Z,90.3
2023-11-15T12:25:51.152Z,90.4
2023-11-15T12:27:21.700Z,90.3
2023-11-15T12:28:52.093Z,90.4
2023-11-15T12:30:22.515Z,90.3
2023-11-15T12:31:53.002Z,90.4
2023-11-15T12:33:23.662Z,90.3
2023-11-15T12:34:54.395Z,90.4
2023-11-15T12:36:24.886Z,90.3
2023-11-15T12:37:55.334Z,90.3
2023-11-15T12:39:25.758Z,90.4
2023-11-15T12:40:56.176Z,90.3
2023-11-15T12:41:13.142Z,90.3
2023-11-15T12:42:43.634Z,90.3
2023-11-15T12:44:14.043Z,90.3
2023-11-15T12:45:44.548Z,90.3
2023-11-15T12:47:15.001Z,90.3
2023-11-15T12:48:45.481Z,90.3
2023-11-15T12:50:15.933Z,90.3
2023-11-15T12:51:46.634Z,90.2
2023-11-15T12:53:17.079Z,90.3
2023-11-15T12:54:47.505Z,90.4
2023-11-15T12:56:17.930Z,90.4
2023-11-15T12:57:48.441Z,90.4
2023-11-15T12:59:18.941Z,90.4
2023-11-15T13:00:49.453Z,90.4
2023-11-15T13:02:20.324Z,90.3
2023-11-15T13:03:51.060Z,90.3
2023-11-15T13:05:21.799Z,90.3
2023-11-15T13:06:52.321Z,90.3
2023-11-15T13:08:22.721Z,90.3
2023-11-15T13:09:53.148Z,90.3
2023-11-15T13:11:23.781Z,90.3
2023-11-15T13:12:58.559Z,90.4
2023-11-15T13:14:29.123Z,90.3
2023-11-15T13:15:59.640Z,90.3
2023-11-15T13:17:30.323Z,90.4
2023-11-15T13:19:00.889Z,90.3
2023-11-15T13:20:31.422Z,90.4
2023-11-15T13:22:01.998Z,90.3
2023-11-15T13:23:32.596Z,90.3
2023-11-15T13:25:03.141Z,90.3
2023-11-15T13:26:33.703Z,90.3
2023-11-15T13:28:06.881Z,90.4
2023-11-15T13:29:37.315Z,90.3
2023-11-15T13:31:07.768Z,90.4
2023-11-15T13:32:38.347Z,90.4
2023-11-15T13:34:09.236Z,90.4
2023-11-15T13:35:39.924Z,90.4
2023-11-15T13:37:12.028Z,90.4
2023-11-15T13:38:42.555Z,90.5
2023-11-15T13:40:13.015Z,90.4
2023-11-15T13:41:43.500Z,90.3
2023-11-15T13:43:13.986Z,90.4
2023-11-15T13:44:44.537Z,90.4
2023-11-15T13:46:15.000Z,90.3
2023-11-15T13:47:45.522Z,90.5
2023-11-15T13:49:15.946Z,90.4
2023-11-15T13:50:46.441Z,90.5
2023-11-15T13:52:17.212Z,90.4
2023-11-15T13:53:47.878Z,90.5
2023-11-15T13:55:18.450Z,90.4
2023-11-15T13:56:48.931Z,90.4
2023-11-15T13:58:19.488Z,90.4
2023-11-15T13:59:49.964Z,90.3
2023-11-15T14:01:20.714Z,90.4
2023-11-15T14:02:51.376Z,90.4
2023-11-15T14:04:22.399Z,90.4
2023-11-15T14:05:55.882Z,90.4
2023-11-15T14:07:30.560Z,90.4
2023-11-15T14:09:02.005Z,90.4
2023-11-15T14:10:32.481Z,90.5
2023-11-15T14:12:02.939Z,90.3
2023-11-15T14:13:33.650Z,90.4
2023-11-15T14:15:04.299Z,90.4
2023-11-15T14:16:34.824Z,90.4
2023-11-15T14:18:05.494Z,90.4
2023-11-15T14:19:36.029Z,90.5
2023-11-15T14:21:06.620Z,90.5
2023-11-15T14:22:37.107Z,90.4
2023-11-15T14:24:08.901Z,90.4
2023-11-15T14:25:39.466Z,90.4
2023-11-15T14:27:09.994Z,90.5
2023-11-15T14:28:40.495Z,90.4
2023-11-15T14:30:10.972Z,90.4
2023-11-15T14:33:28.916Z,90.5
2023-11-15T14:34:59.558Z,90.5
2023-11-15T14:36:30.032Z,90.5
2023-11-15T14:38:00.507Z,90.5
2023-11-15T14:39:31.079Z,90.5
2023-11-15T14:41:01.893Z,90.5
2023-11-15T14:42:32.414Z,90.5
2023-11-15T14:44:02.908Z,90.5
2023-11-15T14:45:33.359Z,90.5
2023-11-15T14:47:04.101Z,90.5
2023-11-15T14:48:38.646Z,90.5
2023-11-15T14:50:09.166Z,90.4
2023-11-15T14:51:39.594Z,90.4
2023-11-15T14:53:10.084Z,90.4
2023-11-15T14:54:40.534Z,90.4
2023-11-15T14:56:11.151Z,90.4
2023-11-15T14:57:41.592Z,90.6
2023-11-15T14:59:12.006Z,90.5
2023-11-15T15:00:42.520Z,90.5
2023-11-15T15:03:30.940Z,90.4
2023-11-15T15:05:01.795Z,90.4
2023-11-15T15:06:32.442Z,90.5
2023-11-15T15:08:03.009Z,90.6
2023-11-15T15:09:33.536Z,90.5
2023-11-15T15:11:04.037Z,90.6
2023-11-15T15:12:34.549Z,90.5
2023-11-15T15:14:05.084Z,90.6
2023-11-15T15:15:35.502Z,90.5
2023-11-15T15:17:18.096Z,90.6
2023-11-15T15:18:55.367Z,90.5
2023-11-15T15:20:25.911Z,90.5
2023-11-15T15:21:56.351Z,90.5
2023-11-15T15:23:26.868Z,90.5
2023-11-15T15:24:57.436Z,90.5
2023-11-15T15:26:27.917Z,90.7
2023-11-15T15:27:58.424Z,90.5
2023-11-15T15:29:29.298Z,90.6
2023-11-15T15:30:59.787Z,90.5
2023-11-15T15:32:30.373Z,90.6
2023-11-15T15:34:00.923Z,90.5
2023-11-15T15:35:31.374Z,90.4
2023-11-15T15:37:01.866Z,90.6
2023-11-15T15:38:32.287Z,90.4
2023-11-15T15:40:02.772Z,90.3
2023-11-15T15:41:33.228Z,90.5
2023-11-15T15:43:03.659Z,90.3
2023-11-15T15:44:34.093Z,90.5
2023-11-15T15:46:04.634Z,90.4
2023-11-15T15:47:35.296Z,90.5
2023-11-15T15:49:06.077Z,90.4
2023-11-15T15:50:36.794Z,90.4
2023-11-15T15:52:07.317Z,90.4
2023-11-15T15:53:37.873Z,90.5
2023-11-15T15:55:08.509Z,90.4
2023-11-15T15:56:38.972Z,90.4
2023-11-15T15:58:09.384Z,90.4
2023-11-15T15:59:39.824Z,90.4
2023-11-15T16:01:10.332Z,90.4
2023-11-15T16:02:40.936Z,90.3
2023-11-15T16:04:11.568Z,90.3
2023-11-15T16:05:42.008Z,90.3
2023-11-15T16:07:12.569Z,90.3
2023-11-15T16:08:43.065Z,90.3
2023-11-15T16:10:13.613Z,90.3
2023-11-15T16:11:44.236Z,90.4
2023-11-15T16:13:14.742Z,90.3
2023-11-15T16:14:45.427Z,90.3
2023-11-15T16:16:16.062Z,90.4
2023-11-15T16:17:46.705Z,90.5
2023-11-15T16:19:17.325Z,90.5
2023-11-15T16:20:47.892Z,90.3
2023-11-15T16:22:18.382Z,90.3
2023-11-15T16:23:48.918Z,90.3
2023-11-15T16:25:19.451Z,90.3
2023-11-15T16:26:50.116Z,90.4
2023-11-15T16:28:20.669Z,90.4
2023-11-15T16:29:51.140Z,90.5
2023-11-15T16:31:21.973Z,90.4
2023-11-15T16:32:52.642Z,90.4
2023-11-15T16:34:23.164Z,90.2
2023-11-15T16:35:53.643Z,90.4
2023-11-15T16:37:24.227Z,90.3
2023-11-15T16:38:54.750Z,90.3
2023-11-15T16:40:25.545Z,90.4
2023-11-15T16:41:56.124Z,90.5
2023-11-15T16:43:26.608Z,90.2
2023-11-15T16:44:57.076Z,90.1
2023-11-15T16:46:27.815Z,90.3
2023-11-15T16:47:58.615Z,90.2
2023-11-15T16:49:29.252Z,90.3
2023-11-15T16:50:59.795Z,90.2
2023-11-15T16:52:30.253Z,90.2
2023-11-15T16:52:47.135Z,90.2
2023-11-15T16:54:17.691Z,90.2
2023-11-15T16:55:48.396Z,90.1
2023-11-15T16:57:18.838Z,90.3
2023-11-15T16:58:49.302Z,90.2
2023-11-15T17:00:19.785Z,90.2
2023-11-15T17:01:50.313Z,90.2
2023-11-15T17:03:24.365Z,90
2023-11-15T17:04:55.333Z,90.1
2023-11-15T17:06:25.882Z,90.2
2023-11-15T17:07:56.323Z,90.2
2023-11-15T17:09:26.869Z,90.2
2023-11-15T17:10:57.504Z,90.2
2023-11-15T17:12:28.059Z,90.2
2023-11-15T17:13:59.802Z,90.3
2023-11-15T17:15:30.290Z,90.3
2023-11-15T17:17:01.377Z,90.3
2023-11-15T17:18:32.170Z,90.2
2023-11-15T17:20:02.809Z,90.2
2023-11-15T17:21:33.406Z,90.1
2023-11-15T17:23:03.934Z,90.3
2023-11-15T17:24:34.356Z,90.3
2023-11-15T17:26:04.818Z,90.4
2023-11-15T17:27:35.309Z,90.2
2023-11-15T17:29:05.892Z,90.2
2023-11-15T17:30:36.353Z,90.2
2023-11-15T17:32:06.834Z,90.3
2023-11-15T17:33:37.510Z,90.1
2023-11-15T17:35:08.237Z,90.3
2023-11-15T17:36:38.765Z,90.2
2023-11-15T17:38:09.249Z,90.3
2023-11-15T17:39:39.645Z,90.3
2023-11-15T17:41:10.099Z,90.2
2023-11-15T17:42:40.682Z,90.3
2023-11-15T17:44:14.134Z,90.2
2023-11-15T17:45:44.606Z,90.2
2023-11-15T17:47:15.041Z,90.2
2023-11-15T17:48:45.506Z,90.1
2023-11-15T17:50:15.974Z,90.3
2023-11-15T17:51:49.477Z,90.2
2023-11-15T17:53:20.139Z,90.2
2023-11-15T17:54:50.606Z,90.1
2023-11-15T17:56:21.103Z,90.1
2023-11-15T17:57:51.553Z,90.2
2023-11-15T17:59:22.004Z,90.2
2023-11-15T18:00:52.544Z,90.3
2023-11-15T18:02:23.029Z,90.2
2023-11-15T18:03:53.638Z,90.2
2023-11-15T18:05:24.167Z,90.1
2023-11-15T18:06:54.730Z,90.2
2023-11-15T18:08:25.211Z,90.2
2023-11-15T18:09:55.711Z,90.2
2023-11-15T18:11:26.239Z,90.2
2023-11-15T18:12:56.904Z,90.1
2023-11-15T18:14:27.667Z,90.2
2023-11-15T18:15:58.203Z,90.1
2023-11-15T18:17:28.654Z,90
2023-11-15T18:18:59.076Z,90
2023-11-15T18:20:29.544Z,89.8
2023-11-15T18:22:00.035Z,90
2023-11-15T18:23:30.438Z,90.1
2023-11-15T18:25:00.874Z,90
2023-11-15T18:26:31.520Z,90.1
2023-11-15T18:28:02.108Z,90.1
2023-11-15T18:29:32.645Z,90.1
2023-11-15T18:31:03.107Z,90
2023-11-15T18:32:33.663Z,90
2023-11-15T18:34:04.330Z,90.1
2023-11-15T18:35:34.934Z,90.1
2023-11-15T18:37:05.347Z,90.1
2023-11-15T18:38:35.777Z,90.1
2023-11-15T18:40:06.209Z,90
2023-11-15T18:41:36.635Z,90.1
2023-11-15T18:41:53.748Z,90.1
2023-11-15T18:43:24.211Z,90.2
2023-11-15T18:44:54.771Z,90.2
2023-11-15T18:46:25.282Z,90.1
2023-11-15T18:47:55.855Z,90.1
2023-11-15T18:49:26.507Z,90.1
2023-11-15T18:50:57.019Z,90.2
2023-11-15T18:52:27.431Z,90.1
2023-11-15T18:53:57.946Z,90.1
2023-11-15T18:55:28.368Z,90.2
2023-11-15T18:56:58.897Z,90.2
2023-11-15T18:58:29.764Z,90.1
2023-11-15T19:00:00.454Z,90.2
2023-11-15T19:01:31.146Z,90.1
2023-11-15T19:03:01.985Z,90.2
2023-11-15T19:04:33.033Z,90.2
2023-11-15T19:06:03.575Z,90.2
2023-11-15T19:07:34.099Z,90.1
2023-11-15T19:09:04.691Z,90.2
2023-11-15T19:10:35.136Z,90.2
2023-11-15T19:12:05.702Z,90.2
2023-11-15T19:13:36.276Z,90.3
2023-11-15T19:15:06.756Z,90.2
2023-11-15T19:16:37.414Z,90.1
2023-11-15T19:18:08.065Z,90.1
2023-11-15T19:19:38.776Z,90.2
2023-11-15T19:21:09.346Z,90.2
2023-11-15T19:22:39.828Z,90.2
2023-11-15T19:24:10.307Z,90.1
2023-11-15T19:25:40.900Z,90.1
2023-11-15T19:27:11.509Z,90.2
2023-11-15T19:28:41.914Z,90.2
2023-11-15T19:30:12.415Z,90.2
2023-11-15T19:31:43.336Z,90.1
2023-11-15T19:33:14.126Z,90
2023-11-15T19:34:44.739Z,90
2023-11-15T19:36:15.201Z,90.1
2023-11-15T19:37:45.714Z,90.1
2023-11-15T19:39:16.353Z,90.2
2023-11-15T19:40:46.998Z,90.2
2023-11-15T19:42:17.721Z,90.1
2023-11-15T19:43:48.326Z,90.2
2023-11-15T19:45:18.909Z,90.1
2023-11-15T19:46:49.482Z,90.1
2023-11-15T19:48:20.168Z,90.2
2023-11-15T19:49:50.786Z,90.2
2023-11-15T19:51:38.475Z,90.1
2023-11-15T19:53:09.783Z,90.2
2023-11-15T19:54:40.283Z,90.2
2023-11-15T19:56:10.780Z,90.2
2023-11-15T19:57:41.230Z,90.2
2023-11-15T19:59:11.742Z,90.2
2023-11-15T20:00:42.340Z,90.3
2023-11-15T20:02:12.848Z,90.3
2023-11-15T20:03:43.531Z,90.3
2023-11-15T20:05:14.245Z,90.3
2023-11-15T20:06:44.787Z,90.2
2023-11-15T20:08:15.294Z,90.2
2023-11-15T20:09:45.792Z,90.3
2023-11-15T20:11:16.222Z,90.3